Terminal Aerodrome Forecast
Issued by NWS Mt. Holly, NJ

Home | Current Version | Previous Version | Text Only | Print | Product List | Glossary On
Versions: 1 2 3 4 5 6 7 8 9 10 11 12
000
FTUS41 KPHI 040554
TAFACY
TAF
KACY 040554Z 0406/0506 20008KT P6SM BKN080
     FM041500 23012G20KT P6SM BKN040 PROB30 0422/0424 3SM -TSRA
      OVC030CB
     FM050000 23008KT P6SM SCT030 BKN080=

USA.gov is the U.S. government's official web portal to all federal, state and local government web resources and services.